createdAt,value
2019-02-04T00:01:21.931Z,8.60
2019-02-04T00:03:53.426Z,8.40
2019-02-04T00:06:24.796Z,8.77
2019-02-04T00:08:56.245Z,10.50
2019-02-04T00:11:27.737Z,6.93
2019-02-04T00:13:59.065Z,9.33
2019-02-04T00:16:40.388Z,5.20
2019-02-04T00:19:03.331Z,4.67
2019-02-04T00:21:37.492Z,7.93
2019-02-04T00:24:08.638Z,7.73
2019-02-04T00:26:51.063Z,6.13
2019-02-04T00:29:13.255Z,7.40
2019-02-04T00:31:44.377Z,8.67
2019-02-04T00:34:16.554Z,7.67
2019-02-04T00:36:47.944Z,8.93
2019-02-04T00:39:19.031Z,9.13
2019-02-04T00:41:50.255Z,6.87
2019-02-04T00:44:26.281Z,7.47
2019-02-04T00:46:58.884Z,6.07
2019-02-04T00:49:30.856Z,7.20
2019-02-04T00:52:02.516Z,6.67
2019-02-04T00:54:33.754Z,10.50
2019-02-04T00:57:05.261Z,7.83
2019-02-04T00:59:37.997Z,7.77
2019-02-04T01:02:09.663Z,10.87
2019-02-04T01:04:41.199Z,5.57
2019-02-04T01:07:12.363Z,10.10
2019-02-04T01:09:43.720Z,9.60
2019-02-04T01:12:15.063Z,11.87
2019-02-04T01:14:46.178Z,8.10
2019-02-04T01:17:17.608Z,8.57
2019-02-04T01:19:48.702Z,8.83
2019-02-04T01:22:21.908Z,8.90
2019-02-04T01:24:53.732Z,7.10
2019-02-04T01:27:25.715Z,9.40
2019-02-04T01:29:57.615Z,8.97
2019-02-04T01:32:30.577Z,9.13
2019-02-04T01:35:02.317Z,11.40
2019-02-04T01:37:34.633Z,8.77
2019-02-04T01:40:09.375Z,11.23
2019-02-04T01:42:40.730Z,7.80
2019-02-04T01:45:12.143Z,12.17
2019-02-04T01:47:43.896Z,6.77
2019-02-04T01:50:17.543Z,10.80
2019-02-04T01:52:48.754Z,9.43
2019-02-04T01:55:20.463Z,11.83
2019-02-04T01:57:53.531Z,11.40
2019-02-04T02:00:36.010Z,9.43
2019-02-04T02:03:07.473Z,11.10
2019-02-04T02:05:38.888Z,9.83
2019-02-04T02:08:10.238Z,12.50
2019-02-04T02:10:41.667Z,10.93
2019-02-04T02:13:14.992Z,12.27
2019-02-04T02:15:46.706Z,12.20
2019-02-04T02:18:18.306Z,8.90
2019-02-04T02:20:50.302Z,11.17
2019-02-04T02:23:23.046Z,12.33
2019-02-04T02:25:54.929Z,16.00
2019-02-04T02:28:26.172Z,11.30
2019-02-04T02:30:57.535Z,11.77
2019-02-04T02:33:30.499Z,11.63
2019-02-04T02:36:02.838Z,10.47
2019-02-04T02:38:34.150Z,13.57
2019-02-04T02:41:05.656Z,12.97
2019-02-04T02:43:37.159Z,11.93
2019-02-04T02:46:08.583Z,12.87
2019-02-04T02:48:39.934Z,10.73
2019-02-04T02:51:11.387Z,14.10
2019-02-04T02:53:42.494Z,13.63
2019-02-04T02:56:13.813Z,13.33
2019-02-04T02:58:45.341Z,13.00
2019-02-04T03:01:16.512Z,10.83
2019-02-04T03:03:47.876Z,11.70
2019-02-04T03:06:19.325Z,12.83
2019-02-04T03:08:50.608Z,15.30
2019-02-04T03:11:21.996Z,12.33
2019-02-04T03:13:54.265Z,14.20
2019-02-04T03:16:25.297Z,14.87
2019-02-04T03:18:56.663Z,13.63
2019-02-04T03:21:28.113Z,11.83
2019-02-04T03:24:01.323Z,13.57
2019-02-04T03:26:33.138Z,10.97
2019-02-04T03:29:04.470Z,17.37
2019-02-04T03:31:39.301Z,15.07
2019-02-04T03:34:09.002Z,14.00
2019-02-04T03:36:40.511Z,14.77
2019-02-04T03:39:12.371Z,12.43
2019-02-04T03:41:43.838Z,14.57
2019-02-04T03:44:15.135Z,14.20
2019-02-04T03:46:46.615Z,12.73
2019-02-04T03:49:18.122Z,10.40
2019-02-04T03:51:49.460Z,13.07
2019-02-04T03:54:20.582Z,17.07
2019-02-04T03:56:51.828Z,11.90
2019-02-04T03:59:23.371Z,10.40
2019-02-04T04:01:56.085Z,13.43
2019-02-04T04:04:27.702Z,11.57
2019-02-04T04:06:58.874Z,12.20
2019-02-04T04:09:30.216Z,12.40
2019-02-04T04:12:01.551Z,10.93
2019-02-04T04:14:33.243Z,11.37
2019-02-04T04:17:04.715Z,10.40
2019-02-04T04:19:36.161Z,11.90
2019-02-04T04:22:07.667Z,10.23
2019-02-04T04:24:39.101Z,9.47
2019-02-04T04:27:10.508Z,10.20
2019-02-04T04:29:41.890Z,10.27
2019-02-04T04:32:13.363Z,10.47
2019-02-04T04:34:44.527Z,10.93
2019-02-04T04:37:15.902Z,11.57
2019-02-04T04:39:47.316Z,11.37
2019-02-04T04:42:18.437Z,11.00
2019-02-04T04:44:49.606Z,9.23
2019-02-04T04:47:21.602Z,12.37
2019-02-04T04:49:52.999Z,11.87
2019-02-04T04:52:24.482Z,12.30
2019-02-04T04:54:55.870Z,11.37
2019-02-04T04:57:26.969Z,12.97
2019-02-04T04:59:58.363Z,11.77
2019-02-04T05:02:29.676Z,14.17
2019-02-04T05:05:01.466Z,11.63
2019-02-04T05:07:32.654Z,15.37
2019-02-04T05:10:05.571Z,14.10
2019-02-04T05:12:36.985Z,13.60
2019-02-04T05:15:09.694Z,13.33
2019-02-04T05:17:41.871Z,10.60
2019-02-04T05:20:14.137Z,13.37
2019-02-04T05:22:45.764Z,13.00
2019-02-04T05:25:17.479Z,16.23
2019-02-04T05:27:48.920Z,13.63
2019-02-04T05:30:21.854Z,13.20
2019-02-04T05:32:53.393Z,16.97
2019-02-04T05:35:25.031Z,11.93
2019-02-04T05:37:56.162Z,14.33
2019-02-04T05:40:27.378Z,15.33
2019-02-04T05:42:58.696Z,11.27
2019-02-04T05:45:30.107Z,12.57
2019-02-04T05:48:01.423Z,11.60
2019-02-04T05:50:36.518Z,12.67
2019-02-04T05:53:08.074Z,13.67
2019-02-04T05:55:39.748Z,12.37
2019-02-04T05:58:11.362Z,13.80
2019-02-04T06:00:46.138Z,15.53
2019-02-04T06:03:18.153Z,13.50
2019-02-04T06:05:49.704Z,11.83
2019-02-04T06:08:20.927Z,14.03
2019-02-04T06:10:52.448Z,12.47
2019-02-04T06:13:24.055Z,13.30
2019-02-04T06:15:55.611Z,13.73
2019-02-04T06:18:26.959Z,11.67
2019-02-04T06:20:58.186Z,12.30
2019-02-04T06:23:30.004Z,14.23
2019-02-04T06:26:01.370Z,13.93
2019-02-04T06:28:32.929Z,12.70
2019-02-04T06:31:04.045Z,15.33
2019-02-04T06:33:35.639Z,16.13
2019-02-04T06:36:06.927Z,12.03
2019-02-04T06:38:38.712Z,14.67
2019-02-04T06:41:10.369Z,14.83
2019-02-04T06:43:41.740Z,12.23
2019-02-04T06:46:13.431Z,16.17
2019-02-04T06:48:44.522Z,25.37
2019-02-04T06:51:16.315Z,14.67
2019-02-04T06:53:47.891Z,13.87
2019-02-04T06:56:19.256Z,11.27
2019-02-04T06:58:50.642Z,12.00
2019-02-04T07:01:21.864Z,14.20
2019-02-04T07:03:54.235Z,11.13
2019-02-04T07:06:26.359Z,13.63
2019-02-04T07:08:57.602Z,13.10
2019-02-04T07:11:28.947Z,12.67
2019-02-04T07:14:00.358Z,12.00
2019-02-04T07:16:31.665Z,14.30
2019-02-04T07:19:02.978Z,14.20
2019-02-04T07:21:34.307Z,13.63
2019-02-04T07:24:05.510Z,14.10
2019-02-04T07:26:36.754Z,12.23
2019-02-04T07:29:07.975Z,14.13
2019-02-04T07:31:39.458Z,13.13
2019-02-04T07:34:10.742Z,13.13
2019-02-04T07:36:41.974Z,10.87
2019-02-04T07:39:13.579Z,12.03
2019-02-04T07:41:44.866Z,10.23
2019-02-04T07:44:16.290Z,15.07
2019-02-04T07:46:47.661Z,12.00
2019-02-04T07:49:19.210Z,12.57
2019-02-04T07:51:50.544Z,15.63
2019-02-04T07:54:23.153Z,16.10
2019-02-04T07:56:55.216Z,11.30
2019-02-04T07:59:26.603Z,12.87
2019-02-04T08:01:58.223Z,12.37
2019-02-04T08:04:29.599Z,9.63
2019-02-04T08:07:00.988Z,15.07
2019-02-04T08:09:32.257Z,11.73
2019-02-04T08:12:03.233Z,11.13
2019-02-04T08:14:35.666Z,11.40
2019-02-04T08:17:06.796Z,8.83
2019-02-04T08:19:46.720Z,10.53
2019-02-04T08:22:11.113Z,11.23
2019-02-04T08:24:42.078Z,14.20
2019-02-04T08:27:13.971Z,9.80
2019-02-04T08:29:45.753Z,10.63
2019-02-04T08:32:16.995Z,13.63
2019-02-04T08:34:48.255Z,8.07
2019-02-04T08:37:21.364Z,8.77
2019-02-04T08:39:54.394Z,9.90
2019-02-04T08:42:25.914Z,13.97
2019-02-04T08:44:57.198Z,9.60
2019-02-04T08:47:28.418Z,10.93
2019-02-04T08:50:01.864Z,12.13
2019-02-04T08:52:33.371Z,9.87
2019-02-04T08:55:05.059Z,12.13
2019-02-04T08:57:36.110Z,14.00
2019-02-04T09:00:09.279Z,11.73
2019-02-04T09:02:40.392Z,8.50
2019-02-04T09:05:13.100Z,6.53
2019-02-04T09:07:44.659Z,7.97
2019-02-04T09:10:22.774Z,8.07
2019-02-04T09:12:54.674Z,8.10
2019-02-04T09:15:25.884Z,8.20
2019-02-04T09:17:57.403Z,7.80
2019-02-04T09:20:28.610Z,12.87
2019-02-04T09:22:59.926Z,12.97
2019-02-04T09:25:31.131Z,6.27
2019-02-04T09:28:02.520Z,10.97
2019-02-04T09:30:34.742Z,7.73
2019-02-04T09:33:06.201Z,9.40
2019-02-04T09:35:37.535Z,10.93
2019-02-04T09:38:08.997Z,8.57
2019-02-04T09:40:42.724Z,7.67
2019-02-04T09:43:14.357Z,9.03
2019-02-04T09:45:45.876Z,7.33
2019-02-04T09:48:19.776Z,9.83
2019-02-04T09:50:54.335Z,9.27
2019-02-04T09:53:25.471Z,5.93
2019-02-04T09:55:57.254Z,7.27
2019-02-04T09:58:28.702Z,7.77
2019-02-04T10:01:00.150Z,8.10
2019-02-04T10:03:31.830Z,7.67
2019-02-04T10:06:03.145Z,6.50
2019-02-04T10:08:34.789Z,6.33
2019-02-04T10:11:06.459Z,6.57
2019-02-04T10:13:37.943Z,12.10
2019-02-04T10:16:11.594Z,12.13
2019-02-04T10:18:42.221Z,6.60
2019-02-04T10:21:13.405Z,6.20
2019-02-04T10:23:44.867Z,6.83
2019-02-04T10:26:16.408Z,7.07
2019-02-04T10:28:48.052Z,7.33
2019-02-04T10:31:19.556Z,5.00
2019-02-04T10:33:50.943Z,7.03
2019-02-04T10:36:22.323Z,7.33
2019-02-04T10:38:54.578Z,6.90
2019-02-04T10:41:26.544Z,7.10
2019-02-04T10:43:58.215Z,6.53
2019-02-04T10:46:29.662Z,9.43
2019-02-04T10:49:00.732Z,5.73
2019-02-04T10:51:32.287Z,5.80
2019-02-04T10:54:03.974Z,6.80
2019-02-04T10:56:35.417Z,8.70
2019-02-04T10:59:07.346Z,7.73
2019-02-04T11:01:38.657Z,6.50
2019-02-04T11:04:09.777Z,6.53
2019-02-04T11:06:40.917Z,9.67
2019-02-04T11:09:12.484Z,4.10
2019-02-04T11:11:43.845Z,7.57
2019-02-04T11:14:15.173Z,8.33
2019-02-04T11:16:46.390Z,7.50
2019-02-04T11:19:17.554Z,10.50
2019-02-04T11:21:48.866Z,7.90
2019-02-04T11:24:20.011Z,6.37
2019-02-04T11:26:51.595Z,8.87
2019-02-04T11:29:22.987Z,7.13
2019-02-04T11:31:54.428Z,6.13
2019-02-04T11:34:27.908Z,8.23
2019-02-04T11:36:59.466Z,11.53
2019-02-04T11:39:30.927Z,4.57
2019-02-04T11:42:02.673Z,6.83
2019-02-04T11:44:34.454Z,8.27
2019-02-04T11:47:05.699Z,7.70
2019-02-04T11:49:37.186Z,7.03
2019-02-04T11:52:09.909Z,7.97
2019-02-04T11:54:41.769Z,6.27
2019-02-04T11:57:13.361Z,10.13
2019-02-04T11:59:44.910Z,7.50
2019-02-04T12:02:16.394Z,8.27
2019-02-04T12:04:47.784Z,6.80
2019-02-04T12:07:19.537Z,11.53
2019-02-04T12:09:51.163Z,7.60
2019-02-04T12:12:24.487Z,6.73
2019-02-04T12:14:55.731Z,6.53
2019-02-04T12:17:27.069Z,8.27
2019-02-04T12:19:58.836Z,5.50
2019-02-04T12:22:30.294Z,9.30
2019-02-04T12:25:01.718Z,11.33
2019-02-04T12:27:32.990Z,8.87
2019-02-04T12:30:05.880Z,10.00
2019-02-04T12:32:37.331Z,8.33
2019-02-04T12:35:10.776Z,6.60
2019-02-04T12:37:42.195Z,7.47
2019-02-04T12:40:14.027Z,11.60
2019-02-04T12:42:46.265Z,8.83
2019-02-04T12:45:21.031Z,11.10
2019-02-04T12:47:52.810Z,10.00
2019-02-04T12:50:24.693Z,10.00
2019-02-04T12:52:56.232Z,8.70
2019-02-04T12:55:29.113Z,8.90
2019-02-04T12:58:01.235Z,7.93
2019-02-04T13:00:33.409Z,10.53
2019-02-04T13:03:06.473Z,6.27
2019-02-04T13:05:40.031Z,8.57
2019-02-04T13:08:13.166Z,9.40
2019-02-04T13:10:45.988Z,10.17
2019-02-04T13:13:20.727Z,8.87
2019-02-04T13:15:53.890Z,8.37
2019-02-04T13:18:26.781Z,10.23
2019-02-04T13:20:58.171Z,11.30
2019-02-04T13:23:31.076Z,12.50
2019-02-04T13:26:02.440Z,8.53
2019-02-04T13:28:34.235Z,11.07
2019-02-04T13:31:05.989Z,10.00
2019-02-04T13:33:37.130Z,10.60
2019-02-04T13:36:08.971Z,9.57
2019-02-04T13:38:40.508Z,10.63
2019-02-04T13:41:11.999Z,14.60
2019-02-04T13:43:47.143Z,12.80
2019-02-04T13:46:18.683Z,10.13
2019-02-04T13:48:50.274Z,13.60
2019-02-04T13:51:21.815Z,16.73
2019-02-04T13:53:57.289Z,12.13
2019-02-04T13:56:29.481Z,11.97
2019-02-04T13:59:00.898Z,9.83
2019-02-04T14:01:33.767Z,23.07
2019-02-04T14:04:05.364Z,14.13
2019-02-04T14:06:36.745Z,10.40
2019-02-04T14:09:18.749Z,11.50
2019-02-04T14:11:50.041Z,13.27
2019-02-04T14:14:23.279Z,10.73
2019-02-04T14:16:54.800Z,11.00
2019-02-04T14:19:26.255Z,10.63
2019-02-04T14:22:08.687Z,12.20
2019-02-04T14:24:30.770Z,10.13
2019-02-04T14:27:02.283Z,8.27
2019-02-04T14:29:33.901Z,10.07
2019-02-04T14:32:05.859Z,10.27
2019-02-04T14:34:37.287Z,8.77
2019-02-04T14:37:08.694Z,8.37
2019-02-04T14:39:40.144Z,9.47
2019-02-04T14:42:15.245Z,10.30
2019-02-04T14:45:27.272Z,9.57
2019-02-04T14:48:19.618Z,9.67
2019-02-04T14:51:34.708Z,7.03
2019-02-04T14:54:51.962Z,8.53
2019-02-04T14:58:03.787Z,8.83
2019-02-04T15:01:12.287Z,7.10
2019-02-04T15:04:37.293Z,6.80
2019-02-04T15:07:59.442Z,8.37
2019-02-04T15:10:48.764Z,8.47
2019-02-04T15:14:06.838Z,8.97
2019-02-04T15:17:00.175Z,7.33
2019-02-04T15:19:58.029Z,13.07
2019-02-04T15:23:35.270Z,9.07
2019-02-04T15:26:20.539Z,10.50
2019-02-04T15:29:09.375Z,9.43
2019-02-04T15:32:01.125Z,15.83
2019-02-04T15:35:28.333Z,15.67
2019-02-04T15:38:22.340Z,17.17
2019-02-04T15:41:07.879Z,9.57
2019-02-04T15:43:51.654Z,11.23
2019-02-04T15:46:44.258Z,9.77
2019-02-04T15:49:52.907Z,9.93
2019-02-04T15:52:25.363Z,10.40
2019-02-04T15:54:56.604Z,10.77
2019-02-04T15:57:28.571Z,10.53
2019-02-04T16:00:01.551Z,8.77
2019-02-04T16:02:32.825Z,12.17
2019-02-04T16:05:05.671Z,8.93
2019-02-04T16:07:37.106Z,9.80
2019-02-04T16:10:11.187Z,12.23
2019-02-04T16:12:43.267Z,7.90
2019-02-04T16:15:16.012Z,9.77
2019-02-04T16:17:47.613Z,9.23
2019-02-04T16:20:22.012Z,11.63
2019-02-04T16:22:58.575Z,11.47
2019-02-04T16:25:26.513Z,12.57
2019-02-04T16:27:58.938Z,11.77
2019-02-04T16:30:30.435Z,11.10
2019-02-04T16:33:02.009Z,10.63
2019-02-04T16:35:33.551Z,9.93
2019-02-04T16:38:05.471Z,9.33
2019-02-04T16:40:36.937Z,9.17
2019-02-04T16:43:09.226Z,10.73
2019-02-04T16:45:41.112Z,8.40
2019-02-04T16:48:12.876Z,9.37
2019-02-04T16:50:44.479Z,11.37
2019-02-04T16:53:15.871Z,9.87
2019-02-04T16:55:47.276Z,10.07
2019-02-04T16:58:18.391Z,9.40
2019-02-04T17:00:50.122Z,9.67
2019-02-04T17:03:21.912Z,7.67
2019-02-04T17:05:53.147Z,9.30
2019-02-04T17:08:24.660Z,9.13
2019-02-04T17:10:56.075Z,13.40
2019-02-04T17:13:27.229Z,12.50
2019-02-04T17:15:59.478Z,10.70
2019-02-04T17:18:30.795Z,10.93
2019-02-04T17:21:02.415Z,9.50
2019-02-04T17:23:34.933Z,9.37
2019-02-04T17:26:10.935Z,11.13
2019-02-04T17:28:42.535Z,12.23
2019-02-04T17:31:24.328Z,9.73
2019-02-04T17:33:56.249Z,9.93
2019-02-04T17:36:28.204Z,11.33
2019-02-04T17:39:00.633Z,10.50
2019-02-04T17:41:33.812Z,12.07
2019-02-04T17:44:06.703Z,10.97
2019-02-04T17:46:38.607Z,12.20
2019-02-04T17:49:10.169Z,9.53
2019-02-04T17:51:42.460Z,9.17
2019-02-04T17:54:13.628Z,10.93
2019-02-04T17:56:45.368Z,7.97
2019-02-04T17:59:16.612Z,10.97
2019-02-04T18:01:48.402Z,10.00
2019-02-04T18:04:20.297Z,10.30
2019-02-04T18:06:52.136Z,12.37
2019-02-04T18:09:24.499Z,9.23
2019-02-04T18:11:55.948Z,9.87
2019-02-04T18:14:27.374Z,11.73
2019-02-04T18:16:59.088Z,11.03
2019-02-04T18:19:31.576Z,10.20
2019-02-04T18:22:03.364Z,13.50
2019-02-04T18:24:34.919Z,12.97
2019-02-04T18:27:06.888Z,11.33
2019-02-04T18:29:38.266Z,12.87
2019-02-04T18:32:09.947Z,11.37
2019-02-04T18:34:41.211Z,9.93
2019-02-04T18:37:13.991Z,9.23
2019-02-04T18:39:45.250Z,11.63
2019-02-04T18:42:16.319Z,8.73
2019-02-04T18:44:50.398Z,10.10
2019-02-04T18:47:22.496Z,9.27
2019-02-04T18:49:54.195Z,9.47
2019-02-04T18:52:25.907Z,10.00
2019-02-04T18:54:57.061Z,7.90
2019-02-04T18:57:28.164Z,10.60
2019-02-04T18:59:59.890Z,11.00
2019-02-04T19:02:31.319Z,10.00
2019-02-04T19:05:07.150Z,10.57
2019-02-04T19:07:39.169Z,11.73
2019-02-04T19:10:12.155Z,10.10
2019-02-04T19:12:43.931Z,10.23
2019-02-04T19:15:17.349Z,14.23
2019-02-04T19:17:50.313Z,8.80
2019-02-04T19:20:23.040Z,12.70
2019-02-04T19:22:54.713Z,13.43
2019-02-04T19:25:26.311Z,11.60
2019-02-04T19:27:58.054Z,10.33
2019-02-04T19:30:41.712Z,12.40
2019-02-04T19:33:13.014Z,9.93
2019-02-04T19:35:44.647Z,13.67
2019-02-04T19:38:16.083Z,11.03
2019-02-04T19:40:47.437Z,12.00
2019-02-04T19:43:19.490Z,12.70
2019-02-04T19:45:51.627Z,10.97
2019-02-04T19:48:23.313Z,12.23
2019-02-04T19:50:55.035Z,13.60
2019-02-04T19:53:26.459Z,14.17
2019-02-04T19:55:58.216Z,11.53
2019-02-04T19:58:29.391Z,13.73
2019-02-04T20:01:00.879Z,13.27
2019-02-04T20:03:32.567Z,12.30
2019-02-04T20:06:03.975Z,12.07
2019-02-04T20:08:35.838Z,11.27
2019-02-04T20:11:07.156Z,15.47
2019-02-04T20:13:38.703Z,11.67
2019-02-04T20:16:10.204Z,13.60
2019-02-04T20:18:43.566Z,12.40
2019-02-04T20:21:16.590Z,12.90
2019-02-04T20:23:48.115Z,14.93
2019-02-04T20:26:19.318Z,12.37
2019-02-04T20:28:50.463Z,13.07
2019-02-04T20:31:21.882Z,13.50
2019-02-04T20:33:53.459Z,13.37
2019-02-04T20:36:25.029Z,14.13
2019-02-04T20:38:56.313Z,12.00
2019-02-04T20:41:27.699Z,14.37
2019-02-04T20:43:58.938Z,15.33
2019-02-04T20:46:30.454Z,13.07
2019-02-04T20:49:03.763Z,15.80
2019-02-04T20:51:35.192Z,14.77
2019-02-04T20:54:06.402Z,12.10
2019-02-04T20:56:38.013Z,13.23
2019-02-04T20:59:10.123Z,15.90
2019-02-04T21:01:43.620Z,13.97
2019-02-04T21:04:15.071Z,14.80
2019-02-04T21:06:55.646Z,16.97
2019-02-04T21:09:21.218Z,17.23
2019-02-04T21:11:53.174Z,15.70
2019-02-04T21:14:24.299Z,15.97
2019-02-04T21:16:55.775Z,16.03
2019-02-04T21:19:27.375Z,16.47
2019-02-04T21:21:58.823Z,16.87
2019-02-04T21:24:30.325Z,17.10
2019-02-04T21:27:01.652Z,16.83
2019-02-04T21:29:34.127Z,18.73
2019-02-04T21:32:05.399Z,15.43
2019-02-04T21:34:37.826Z,17.77
2019-02-04T21:37:09.331Z,16.47
2019-02-04T21:39:41.087Z,19.40
2019-02-04T21:42:12.617Z,23.63
2019-02-04T21:44:44.355Z,22.23
2019-02-04T21:47:15.751Z,19.00
2019-02-04T21:49:47.200Z,21.10
2019-02-04T21:52:18.907Z,25.13
2019-02-04T21:54:50.469Z,21.57
2019-02-04T21:57:21.639Z,20.37
2019-02-04T21:59:53.363Z,22.00
2019-02-04T22:02:24.832Z,26.57
2019-02-04T22:04:56.163Z,25.93
2019-02-04T22:07:27.465Z,23.03
2019-02-04T22:09:58.901Z,24.53
2019-02-04T22:12:30.490Z,22.43
2019-02-04T22:15:02.437Z,25.53
2019-02-04T22:17:34.235Z,21.43
2019-02-04T22:20:07.487Z,21.47
2019-02-04T22:22:39.376Z,22.27
2019-02-04T22:25:19.461Z,28.63
2019-02-04T22:27:44.219Z,27.57
2019-02-04T22:30:17.903Z,22.70
2019-02-04T22:32:49.803Z,23.23
2019-02-04T22:35:21.051Z,23.53
2019-02-04T22:37:53.064Z,22.27
2019-02-04T22:40:29.562Z,25.90
2019-02-04T22:43:00.184Z,33.10
2019-02-04T22:45:31.294Z,29.43
2019-02-04T22:48:02.388Z,32.87
2019-02-04T22:50:33.805Z,36.87
2019-02-04T22:53:06.027Z,37.47
2019-02-04T22:55:37.667Z,31.93
2019-02-04T22:58:08.903Z,37.43
2019-02-04T23:00:59.682Z,30.47
2019-02-04T23:03:31.123Z,28.43
2019-02-04T23:06:02.718Z,28.13
2019-02-04T23:08:34.003Z,27.97
2019-02-04T23:11:05.839Z,31.53
2019-02-04T23:13:38.063Z,28.87
2019-02-04T23:16:10.398Z,32.00
2019-02-04T23:18:41.907Z,30.50
2019-02-04T23:21:13.377Z,34.60
2019-02-04T23:23:44.683Z,31.23
2019-02-04T23:26:16.569Z,30.13
2019-02-04T23:28:48.859Z,31.93
2019-02-04T23:31:20.289Z,31.27
2019-02-04T23:33:52.892Z,32.83
2019-02-04T23:36:24.852Z,30.87
2019-02-04T23:38:56.923Z,34.47
2019-02-04T23:41:28.092Z,34.13
2019-02-04T23:43:59.946Z,33.97
2019-02-04T23:46:31.415Z,32.23
2019-02-04T23:49:03.282Z,35.73
2019-02-04T23:51:34.932Z,34.87
2019-02-04T23:54:06.939Z,36.13
2019-02-04T23:56:39.638Z,35.97
2019-02-04T23:59:13.266Z,37.03
